sensor_id;sensor_type;location;lat;lon;timestamp;temperature;humidity
17489;DHT22;8861;52.644;4.734;2023-02-27T00:01:32;2.10;99.90
17489;DHT22;8861;52.644;4.734;2023-02-27T00:04:01;2.10;99.90
17489;DHT22;8861;52.644;4.734;2023-02-27T00:06:28;2.00;99.90
17489;DHT22;8861;52.644;4.734;2023-02-27T00:08:55;2.00;99.90
17489;DHT22;8861;52.644;4.734;2023-02-27T00:11:22;2.00;99.90
17489;DHT22;8861;52.644;4.734;2023-02-27T00:13:48;2.00;99.90
17489;DHT22;8861;52.644;4.734;2023-02-27T00:16:16;2.10;99.90
17489;DHT22;8861;52.644;4.734;2023-02-27T00:18:42;2.00;99.90
17489;DHT22;8861;52.644;4.734;2023-02-27T00:21:11;2.10;99.90
17489;DHT22;8861;52.644;4.734;2023-02-27T00:23:38;2.20;99.90
17489;DHT22;8861;52.644;4.734;2023-02-27T00:26:05;2.30;99.90
17489;DHT22;8861;52.644;4.734;2023-02-27T00:28:31;2.30;99.90
17489;DHT22;8861;52.644;4.734;2023-02-27T00:30:58;2.30;99.90
17489;DHT22;8861;52.644;4.734;2023-02-27T00:33:25;2.30;99.90
17489;DHT22;8861;52.644;4.734;2023-02-27T00:35:56;2.30;99.90
17489;DHT22;8861;52.644;4.734;2023-02-27T00:38:29;2.40;99.90
17489;DHT22;8861;52.644;4.734;2023-02-27T00:40:56;2.40;99.90
17489;DHT22;8861;52.644;4.734;2023-02-27T00:43:23;2.50;99.90
17489;DHT22;8861;52.644;4.734;2023-02-27T00:45:51;2.50;99.90
17489;DHT22;8861;52.644;4.734;2023-02-27T00:48:18;2.60;99.90
17489;DHT22;8861;52.644;4.734;2023-02-27T00:50:45;2.60;99.90
17489;DHT22;8861;52.644;4.734;2023-02-27T00:53:12;2.60;99.90
17489;DHT22;8861;52.644;4.734;2023-02-27T00:55:40;2.60;99.90
17489;DHT22;8861;52.644;4.734;2023-02-27T00:58:08;2.60;99.90
17489;DHT22;8861;52.644;4.734;2023-02-27T01:00:37;2.60;99.90
17489;DHT22;8861;52.644;4.734;2023-02-27T01:03:04;2.50;99.90
17489;DHT22;8861;52.644;4.734;2023-02-27T01:05:31;2.40;99.90
17489;DHT22;8861;52.644;4.734;2023-02-27T01:07:58;2.40;99.90
17489;DHT22;8861;52.644;4.734;2023-02-27T01:10:25;2.40;99.90
17489;DHT22;8861;52.644;4.734;2023-02-27T01:12:54;2.30;99.90
17489;DHT22;8861;52.644;4.734;2023-02-27T01:15:21;2.30;99.90
17489;DHT22;8861;52.644;4.734;2023-02-27T01:17:48;2.20;99.90
17489;DHT22;8861;52.644;4.734;2023-02-27T01:20:14;2.10;99.90
17489;DHT22;8861;52.644;4.734;2023-02-27T01:22:42;2.10;99.90
17489;DHT22;8861;52.644;4.734;2023-02-27T01:25:09;2.00;99.90
17489;DHT22;8861;52.644;4.734;2023-02-27T01:27:36;1.90;99.90
17489;DHT22;8861;52.644;4.734;2023-02-27T01:30:06;1.90;99.90
17489;DHT22;8861;52.644;4.734;2023-02-27T01:32:33;1.90;99.90
17489;DHT22;8861;52.644;4.734;2023-02-27T01:35:00;1.80;99.90
17489;DHT22;8861;52.644;4.734;2023-02-27T01:37:27;1.70;99.90
17489;DHT22;8861;52.644;4.734;2023-02-27T01:39:54;1.70;99.90
17489;DHT22;8861;52.644;4.734;2023-02-27T01:42:22;1.60;99.90
17489;DHT22;8861;52.644;4.734;2023-02-27T01:48:07;1.60;99.90
17489;DHT22;8861;52.644;4.734;2023-02-27T01:50:38;1.50;99.90
17489;DHT22;8861;52.644;4.734;2023-02-27T01:53:07;1.50;99.90
17489;DHT22;8861;52.644;4.734;2023-02-27T01:55:37;1.40;99.90
17489;DHT22;8861;52.644;4.734;2023-02-27T01:58:06;1.40;99.90
17489;DHT22;8861;52.644;4.734;2023-02-27T02:00:33;1.40;99.90
17489;DHT22;8861;52.644;4.734;2023-02-27T02:03:08;1.40;99.90
17489;DHT22;8861;52.644;4.734;2023-02-27T02:05:39;1.40;99.90
17489;DHT22;8861;52.644;4.734;2023-02-27T02:08:29;1.30;99.90
17489;DHT22;8861;52.644;4.734;2023-02-27T02:11:41;1.20;99.90
17489;DHT22;8861;52.644;4.734;2023-02-27T02:14:12;1.10;99.90
17489;DHT22;8861;52.644;4.734;2023-02-27T02:16:46;1.10;99.90
17489;DHT22;8861;52.644;4.734;2023-02-27T02:19:52;1.00;99.90
17489;DHT22;8861;52.644;4.734;2023-02-27T02:22:52;1.00;99.90
17489;DHT22;8861;52.644;4.734;2023-02-27T02:25:48;1.00;99.90
17489;DHT22;8861;52.644;4.734;2023-02-27T02:28:53;0.90;99.90
17489;DHT22;8861;52.644;4.734;2023-02-27T02:31:49;0.90;99.90
17489;DHT22;8861;52.644;4.734;2023-02-27T02:34:53;0.90;99.90
17489;DHT22;8861;52.644;4.734;2023-02-27T02:37:51;0.80;99.90
17489;DHT22;8861;52.644;4.734;2023-02-27T02:40:29;0.80;99.90
17489;DHT22;8861;52.644;4.734;2023-02-27T02:43:07;0.80;99.90
17489;DHT22;8861;52.644;4.734;2023-02-27T02:45:43;0.80;99.90
17489;DHT22;8861;52.644;4.734;2023-02-27T02:48:16;0.70;99.90
17489;DHT22;8861;52.644;4.734;2023-02-27T02:50:49;0.70;99.90
17489;DHT22;8861;52.644;4.734;2023-02-27T02:53:24;0.70;99.90
17489;DHT22;8861;52.644;4.734;2023-02-27T02:55:59;0.70;99.90
17489;DHT22;8861;52.644;4.734;2023-02-27T02:58:32;0.70;99.90
17489;DHT22;8861;52.644;4.734;2023-02-27T03:01:04;0.70;99.90
17489;DHT22;8861;52.644;4.734;2023-02-27T03:03:38;0.70;99.90
17489;DHT22;8861;52.644;4.734;2023-02-27T03:06:10;0.70;99.90
17489;DHT22;8861;52.644;4.734;2023-02-27T03:08:42;0.70;99.90
17489;DHT22;8861;52.644;4.734;2023-02-27T03:11:11;0.70;99.90
17489;DHT22;8861;52.644;4.734;2023-02-27T03:13:42;0.70;99.90
17489;DHT22;8861;52.644;4.734;2023-02-27T03:16:15;0.70;99.90
17489;DHT22;8861;52.644;4.734;2023-02-27T03:18:48;0.60;99.90
17489;DHT22;8861;52.644;4.734;2023-02-27T03:21:21;0.70;99.90
17489;DHT22;8861;52.644;4.734;2023-02-27T03:23:52;0.60;99.90
17489;DHT22;8861;52.644;4.734;2023-02-27T03:26:30;0.60;99.90
17489;DHT22;8861;52.644;4.734;2023-02-27T03:29:01;0.60;99.90
17489;DHT22;8861;52.644;4.734;2023-02-27T03:31:35;0.60;99.90
17489;DHT22;8861;52.644;4.734;2023-02-27T03:34:08;0.60;99.90
17489;DHT22;8861;52.644;4.734;2023-02-27T03:36:43;0.50;99.90
17489;DHT22;8861;52.644;4.734;2023-02-27T03:39:22;0.50;99.90
17489;DHT22;8861;52.644;4.734;2023-02-27T03:41:56;0.50;99.90
17489;DHT22;8861;52.644;4.734;2023-02-27T03:44:29;0.50;99.90
17489;DHT22;8861;52.644;4.734;2023-02-27T03:46:57;0.50;99.90
17489;DHT22;8861;52.644;4.734;2023-02-27T03:49:24;0.50;99.90
17489;DHT22;8861;52.644;4.734;2023-02-27T03:51:52;0.50;99.90
17489;DHT22;8861;52.644;4.734;2023-02-27T03:54:22;0.50;99.90
17489;DHT22;8861;52.644;4.734;2023-02-27T03:56:56;0.40;99.90
17489;DHT22;8861;52.644;4.734;2023-02-27T03:59:25;0.40;99.90
17489;DHT22;8861;52.644;4.734;2023-02-27T04:01:54;0.40;99.90
17489;DHT22;8861;52.644;4.734;2023-02-27T04:04:22;0.40;99.90
17489;DHT22;8861;52.644;4.734;2023-02-27T04:06:53;0.30;99.90
17489;DHT22;8861;52.644;4.734;2023-02-27T04:09:52;0.30;99.90
17489;DHT22;8861;52.644;4.734;2023-02-27T04:12:37;0.40;99.90
17489;DHT22;8861;52.644;4.734;2023-02-27T04:15:13;0.30;99.90
17489;DHT22;8861;52.644;4.734;2023-02-27T04:17:48;0.30;99.90
17489;DHT22;8861;52.644;4.734;2023-02-27T04:20:30;0.30;99.90
17489;DHT22;8861;52.644;4.734;2023-02-27T04:23:04;0.40;99.90
17489;DHT22;8861;52.644;4.734;2023-02-27T04:25:43;0.40;99.90
17489;DHT22;8861;52.644;4.734;2023-02-27T04:28:16;0.40;99.90
17489;DHT22;8861;52.644;4.734;2023-02-27T04:30:53;0.50;99.90
17489;DHT22;8861;52.644;4.734;2023-02-27T04:33:27;0.40;99.90
17489;DHT22;8861;52.644;4.734;2023-02-27T04:36:01;0.40;99.90
17489;DHT22;8861;52.644;4.734;2023-02-27T04:38:35;0.40;99.90
17489;DHT22;8861;52.644;4.734;2023-02-27T04:41:06;0.40;99.90
17489;DHT22;8861;52.644;4.734;2023-02-27T04:43:36;0.40;99.90
17489;DHT22;8861;52.644;4.734;2023-02-27T04:46:07;0.40;99.90
17489;DHT22;8861;52.644;4.734;2023-02-27T04:48:37;0.30;99.90
17489;DHT22;8861;52.644;4.734;2023-02-27T04:51:13;0.30;99.90
17489;DHT22;8861;52.644;4.734;2023-02-27T04:53:46;0.30;99.90
17489;DHT22;8861;52.644;4.734;2023-02-27T04:56:18;0.30;99.90
17489;DHT22;8861;52.644;4.734;2023-02-27T04:58:50;0.30;99.90
17489;DHT22;8861;52.644;4.734;2023-02-27T05:01:23;0.30;99.90
17489;DHT22;8861;52.644;4.734;2023-02-27T05:03:52;0.30;99.90
17489;DHT22;8861;52.644;4.734;2023-02-27T05:06:28;0.30;99.90
17489;DHT22;8861;52.644;4.734;2023-02-27T05:09:00;0.30;99.90
17489;DHT22;8861;52.644;4.734;2023-02-27T05:11:31;0.30;99.90
17489;DHT22;8861;52.644;4.734;2023-02-27T05:14:07;0.20;99.90
17489;DHT22;8861;52.644;4.734;2023-02-27T05:16:39;0.30;99.90
17489;DHT22;8861;52.644;4.734;2023-02-27T05:19:07;0.30;99.90
17489;DHT22;8861;52.644;4.734;2023-02-27T05:21:37;0.30;99.90
17489;DHT22;8861;52.644;4.734;2023-02-27T05:24:16;0.40;99.90
17489;DHT22;8861;52.644;4.734;2023-02-27T05:27:18;0.40;99.90
17489;DHT22;8861;52.644;4.734;2023-02-27T05:29:48;0.40;99.90
17489;DHT22;8861;52.644;4.734;2023-02-27T05:32:26;0.50;99.90
17489;DHT22;8861;52.644;4.734;2023-02-27T05:35:01;0.40;99.90
17489;DHT22;8861;52.644;4.734;2023-02-27T05:37:32;0.40;99.90
17489;DHT22;8861;52.644;4.734;2023-02-27T05:40:02;0.40;99.90
17489;DHT22;8861;52.644;4.734;2023-02-27T05:42:36;0.30;99.90
17489;DHT22;8861;52.644;4.734;2023-02-27T05:45:08;0.20;99.90
17489;DHT22;8861;52.644;4.734;2023-02-27T05:47:39;0.20;99.90
17489;DHT22;8861;52.644;4.734;2023-02-27T05:50:09;0.20;99.90
17489;DHT22;8861;52.644;4.734;2023-02-27T05:52:38;0.10;99.90
17489;DHT22;8861;52.644;4.734;2023-02-27T05:55:09;0.10;99.90
17489;DHT22;8861;52.644;4.734;2023-02-27T05:57:40;0.20;99.90
17489;DHT22;8861;52.644;4.734;2023-02-27T06:00:13;0.20;99.90
17489;DHT22;8861;52.644;4.734;2023-02-27T06:02:42;0.30;99.90
17489;DHT22;8861;52.644;4.734;2023-02-27T06:05:12;0.40;99.90
17489;DHT22;8861;52.644;4.734;2023-02-27T06:07:40;0.50;99.90
17489;DHT22;8861;52.644;4.734;2023-02-27T06:10:10;0.60;99.90
17489;DHT22;8861;52.644;4.734;2023-02-27T06:12:38;0.80;99.90
17489;DHT22;8861;52.644;4.734;2023-02-27T06:15:06;0.80;99.90
17489;DHT22;8861;52.644;4.734;2023-02-27T06:17:34;0.90;99.90
17489;DHT22;8861;52.644;4.734;2023-02-27T06:20:01;1.00;99.90
17489;DHT22;8861;52.644;4.734;2023-02-27T06:22:29;1.10;99.90
17489;DHT22;8861;52.644;4.734;2023-02-27T06:24:56;1.20;99.90
17489;DHT22;8861;52.644;4.734;2023-02-27T06:27:22;1.30;99.90
17489;DHT22;8861;52.644;4.734;2023-02-27T06:29:51;1.40;99.90
17489;DHT22;8861;52.644;4.734;2023-02-27T06:32:18;1.40;99.90
17489;DHT22;8861;52.644;4.734;2023-02-27T06:34:46;1.50;99.90
17489;DHT22;8861;52.644;4.734;2023-02-27T06:37:13;1.60;99.90
17489;DHT22;8861;52.644;4.734;2023-02-27T06:39:40;1.70;99.90
17489;DHT22;8861;52.644;4.734;2023-02-27T06:42:07;1.80;99.90
17489;DHT22;8861;52.644;4.734;2023-02-27T06:44:34;1.90;99.90
17489;DHT22;8861;52.644;4.734;2023-02-27T06:47:01;1.90;99.90
17489;DHT22;8861;52.644;4.734;2023-02-27T06:49:28;1.90;99.90
17489;DHT22;8861;52.644;4.734;2023-02-27T06:51:56;2.00;99.90
17489;DHT22;8861;52.644;4.734;2023-02-27T06:54:23;2.10;99.90
17489;DHT22;8861;52.644;4.734;2023-02-27T06:56:50;2.10;99.90
17489;DHT22;8861;52.644;4.734;2023-02-27T06:59:17;2.20;99.90
17489;DHT22;8861;52.644;4.734;2023-02-27T07:01:44;2.20;99.90
17489;DHT22;8861;52.644;4.734;2023-02-27T07:04:12;2.30;99.90
17489;DHT22;8861;52.644;4.734;2023-02-27T07:06:40;2.30;99.90
17489;DHT22;8861;52.644;4.734;2023-02-27T07:09:12;2.40;99.90
17489;DHT22;8861;52.644;4.734;2023-02-27T07:11:42;2.50;99.90
17489;DHT22;8861;52.644;4.734;2023-02-27T07:14:09;2.60;99.90
17489;DHT22;8861;52.644;4.734;2023-02-27T07:16:38;2.70;99.90
17489;DHT22;8861;52.644;4.734;2023-02-27T07:19:05;2.80;99.90
17489;DHT22;8861;52.644;4.734;2023-02-27T07:21:33;3.00;99.90
17489;DHT22;8861;52.644;4.734;2023-02-27T07:24:00;3.10;99.90
17489;DHT22;8861;52.644;4.734;2023-02-27T07:26:29;3.30;99.90
17489;DHT22;8861;52.644;4.734;2023-02-27T07:28:55;3.40;99.90
17489;DHT22;8861;52.644;4.734;2023-02-27T07:31:22;3.60;99.90
17489;DHT22;8861;52.644;4.734;2023-02-27T07:33:49;3.70;99.90
17489;DHT22;8861;52.644;4.734;2023-02-27T07:36:16;3.90;99.90
17489;DHT22;8861;52.644;4.734;2023-02-27T07:38:43;4.10;99.90
17489;DHT22;8861;52.644;4.734;2023-02-27T07:41:10;4.20;99.90
17489;DHT22;8861;52.644;4.734;2023-02-27T07:43:38;4.40;99.90
17489;DHT22;8861;52.644;4.734;2023-02-27T07:46:06;4.50;99.90
17489;DHT22;8861;52.644;4.734;2023-02-27T07:48:33;4.60;99.90
17489;DHT22;8861;52.644;4.734;2023-02-27T07:51:00;4.70;99.90
17489;DHT22;8861;52.644;4.734;2023-02-27T07:53:27;4.80;99.90
17489;DHT22;8861;52.644;4.734;2023-02-27T07:55:54;4.80;99.90
17489;DHT22;8861;52.644;4.734;2023-02-27T07:58:21;4.90;99.90
17489;DHT22;8861;52.644;4.734;2023-02-27T08:00:49;5.00;99.90
17489;DHT22;8861;52.644;4.734;2023-02-27T08:03:16;5.10;99.90
17489;DHT22;8861;52.644;4.734;2023-02-27T08:05:43;5.40;99.90
17489;DHT22;8861;52.644;4.734;2023-02-27T08:08:10;5.60;99.90
17489;DHT22;8861;52.644;4.734;2023-02-27T08:10:37;5.80;99.90
17489;DHT22;8861;52.644;4.734;2023-02-27T08:13:04;6.00;99.90
17489;DHT22;8861;52.644;4.734;2023-02-27T08:15:31;6.10;99.90
17489;DHT22;8861;52.644;4.734;2023-02-27T08:17:59;6.20;99.90
17489;DHT22;8861;52.644;4.734;2023-02-27T08:20:26;6.20;99.90
17489;DHT22;8861;52.644;4.734;2023-02-27T08:22:54;6.20;99.90
17489;DHT22;8861;52.644;4.734;2023-02-27T08:25:21;6.10;99.90
17489;DHT22;8861;52.644;4.734;2023-02-27T08:27:48;6.10;99.90
17489;DHT22;8861;52.644;4.734;2023-02-27T08:30:15;5.90;99.90
17489;DHT22;8861;52.644;4.734;2023-02-27T08:36:11;5.70;99.90
17489;DHT22;8861;52.644;4.734;2023-02-27T08:38:38;5.50;99.90
17489;DHT22;8861;52.644;4.734;2023-02-27T08:41:05;5.40;99.90
17489;DHT22;8861;52.644;4.734;2023-02-27T08:43:32;5.40;99.90
17489;DHT22;8861;52.644;4.734;2023-02-27T08:45:59;5.30;99.90
17489;DHT22;8861;52.644;4.734;2023-02-27T08:48:26;5.20;99.90
17489;DHT22;8861;52.644;4.734;2023-02-27T08:50:53;5.30;99.90
17489;DHT22;8861;52.644;4.734;2023-02-27T08:53:21;5.20;99.90
17489;DHT22;8861;52.644;4.734;2023-02-27T08:55:49;5.20;99.90
17489;DHT22;8861;52.644;4.734;2023-02-27T08:58:16;5.20;99.90
17489;DHT22;8861;52.644;4.734;2023-02-27T09:00:43;5.20;99.90
17489;DHT22;8861;52.644;4.734;2023-02-27T09:03:10;5.20;99.90
17489;DHT22;8861;52.644;4.734;2023-02-27T09:05:37;5.30;99.90
17489;DHT22;8861;52.644;4.734;2023-02-27T09:08:04;5.30;99.90
17489;DHT22;8861;52.644;4.734;2023-02-27T09:10:33;5.30;99.90
17489;DHT22;8861;52.644;4.734;2023-02-27T09:13:00;5.40;99.90
17489;DHT22;8861;52.644;4.734;2023-02-27T09:15:29;5.50;99.90
17489;DHT22;8861;52.644;4.734;2023-02-27T09:17:57;5.70;99.90
17489;DHT22;8861;52.644;4.734;2023-02-27T09:20:30;5.90;99.90
17489;DHT22;8861;52.644;4.734;2023-02-27T09:23:02;6.00;99.90
17489;DHT22;8861;52.644;4.734;2023-02-27T09:25:29;6.30;99.90
17489;DHT22;8861;52.644;4.734;2023-02-27T09:27:57;6.60;99.90
17489;DHT22;8861;52.644;4.734;2023-02-27T09:30:24;6.80;99.90
17489;DHT22;8861;52.644;4.734;2023-02-27T09:32:51;7.00;99.90
17489;DHT22;8861;52.644;4.734;2023-02-27T09:35:18;7.00;99.90
17489;DHT22;8861;52.644;4.734;2023-02-27T09:37:46;6.90;99.90
17489;DHT22;8861;52.644;4.734;2023-02-27T09:40:19;6.80;99.90
17489;DHT22;8861;52.644;4.734;2023-02-27T09:42:47;6.60;99.90
17489;DHT22;8861;52.644;4.734;2023-02-27T09:45:20;6.40;99.90
17489;DHT22;8861;52.644;4.734;2023-02-27T09:47:51;6.30;99.90
17489;DHT22;8861;52.644;4.734;2023-02-27T09:50:30;6.10;99.90
17489;DHT22;8861;52.644;4.734;2023-02-27T09:52:59;6.10;99.90
17489;DHT22;8861;52.644;4.734;2023-02-27T09:55:30;6.00;99.90
17489;DHT22;8861;52.644;4.734;2023-02-27T09:58:03;6.00;99.90
17489;DHT22;8861;52.644;4.734;2023-02-27T10:00:46;6.00;99.90
17489;DHT22;8861;52.644;4.734;2023-02-27T10:03:29;6.00;99.90
17489;DHT22;8861;52.644;4.734;2023-02-27T10:06:11;5.90;99.90
17489;DHT22;8861;52.644;4.734;2023-02-27T10:08:45;6.00;99.90
17489;DHT22;8861;52.644;4.734;2023-02-27T10:11:19;6.00;99.90
17489;DHT22;8861;52.644;4.734;2023-02-27T10:13:56;6.00;99.90
17489;DHT22;8861;52.644;4.734;2023-02-27T10:16:26;6.10;99.90
17489;DHT22;8861;52.644;4.734;2023-02-27T10:18:56;6.10;99.90
17489;DHT22;8861;52.644;4.734;2023-02-27T10:21:28;6.10;99.90
17489;DHT22;8861;52.644;4.734;2023-02-27T10:23:59;6.20;99.90
17489;DHT22;8861;52.644;4.734;2023-02-27T10:26:30;6.20;99.90
17489;DHT22;8861;52.644;4.734;2023-02-27T10:28:58;6.30;99.90
17489;DHT22;8861;52.644;4.734;2023-02-27T10:31:31;6.40;99.90
17489;DHT22;8861;52.644;4.734;2023-02-27T10:33:59;6.50;99.90
17489;DHT22;8861;52.644;4.734;2023-02-27T10:36:27;6.50;99.90
17489;DHT22;8861;52.644;4.734;2023-02-27T10:38:57;6.50;99.90
17489;DHT22;8861;52.644;4.734;2023-02-27T10:41:26;6.60;99.90
17489;DHT22;8861;52.644;4.734;2023-02-27T10:43:56;6.60;99.90
17489;DHT22;8861;52.644;4.734;2023-02-27T10:46:26;6.60;99.90
17489;DHT22;8861;52.644;4.734;2023-02-27T10:48:56;6.60;99.90
17489;DHT22;8861;52.644;4.734;2023-02-27T10:51:26;6.50;99.90
17489;DHT22;8861;52.644;4.734;2023-02-27T10:54:23;6.50;99.90
17489;DHT22;8861;52.644;4.734;2023-02-27T10:56:53;6.50;99.90
17489;DHT22;8861;52.644;4.734;2023-02-27T10:59:23;6.40;99.90
17489;DHT22;8861;52.644;4.734;2023-02-27T11:01:53;6.40;99.90
17489;DHT22;8861;52.644;4.734;2023-02-27T11:04:28;6.30;99.90
17489;DHT22;8861;52.644;4.734;2023-02-27T11:06:58;6.30;99.90
17489;DHT22;8861;52.644;4.734;2023-02-27T11:09:27;6.30;99.90
17489;DHT22;8861;52.644;4.734;2023-02-27T11:12:09;6.30;99.90
17489;DHT22;8861;52.644;4.734;2023-02-27T11:14:47;6.20;99.90
17489;DHT22;8861;52.644;4.734;2023-02-27T11:17:21;6.30;99.90
17489;DHT22;8861;52.644;4.734;2023-02-27T11:19:50;6.40;99.90
17489;DHT22;8861;52.644;4.734;2023-02-27T11:22:19;6.40;99.90
17489;DHT22;8861;52.644;4.734;2023-02-27T11:24:48;6.50;99.90
17489;DHT22;8861;52.644;4.734;2023-02-27T11:27:21;6.50;99.90
17489;DHT22;8861;52.644;4.734;2023-02-27T11:29:56;6.60;99.90
17489;DHT22;8861;52.644;4.734;2023-02-27T11:32:25;6.60;99.90
17489;DHT22;8861;52.644;4.734;2023-02-27T11:34:54;6.60;99.90
17489;DHT22;8861;52.644;4.734;2023-02-27T11:37:27;6.70;99.90
17489;DHT22;8861;52.644;4.734;2023-02-27T11:40:11;6.80;99.90
17489;DHT22;8861;52.644;4.734;2023-02-27T11:42:43;6.90;99.90
17489;DHT22;8861;52.644;4.734;2023-02-27T11:45:25;7.00;99.90
17489;DHT22;8861;52.644;4.734;2023-02-27T11:47:55;7.00;99.90
17489;DHT22;8861;52.644;4.734;2023-02-27T11:50:50;7.10;99.90
17489;DHT22;8861;52.644;4.734;2023-02-27T11:56:29;7.20;99.90
17489;DHT22;8861;52.644;4.734;2023-02-27T11:59:01;7.30;99.90
17489;DHT22;8861;52.644;4.734;2023-02-27T12:01:35;7.30;99.90
17489;DHT22;8861;52.644;4.734;2023-02-27T12:04:09;7.40;99.90
17489;DHT22;8861;52.644;4.734;2023-02-27T12:06:42;7.50;99.90
17489;DHT22;8861;52.644;4.734;2023-02-27T12:09:26;7.50;99.90
17489;DHT22;8861;52.644;4.734;2023-02-27T12:11:56;7.50;99.90
17489;DHT22;8861;52.644;4.734;2023-02-27T12:14:29;7.50;99.90
17489;DHT22;8861;52.644;4.734;2023-02-27T12:17:03;7.50;99.90
17489;DHT22;8861;52.644;4.734;2023-02-27T12:19:38;7.50;99.90
17489;DHT22;8861;52.644;4.734;2023-02-27T12:22:18;7.60;99.90
17489;DHT22;8861;52.644;4.734;2023-02-27T12:24:50;7.70;99.90
17489;DHT22;8861;52.644;4.734;2023-02-27T12:27:21;7.80;99.90
17489;DHT22;8861;52.644;4.734;2023-02-27T12:29:52;7.90;99.90
17489;DHT22;8861;52.644;4.734;2023-02-27T12:32:23;7.90;99.90
17489;DHT22;8861;52.644;4.734;2023-02-27T12:34:55;8.00;99.90
17489;DHT22;8861;52.644;4.734;2023-02-27T12:37:27;7.90;99.90
17489;DHT22;8861;52.644;4.734;2023-02-27T12:39:58;7.90;99.90
17489;DHT22;8861;52.644;4.734;2023-02-27T12:42:47;7.90;99.90
17489;DHT22;8861;52.644;4.734;2023-02-27T12:48:20;8.10;99.90
17489;DHT22;8861;52.644;4.734;2023-02-27T12:50:55;8.10;99.90
17489;DHT22;8861;52.644;4.734;2023-02-27T12:53:40;8.20;99.90
17489;DHT22;8861;52.644;4.734;2023-02-27T12:56:12;8.30;99.90
17489;DHT22;8861;52.644;4.734;2023-02-27T12:58:44;8.40;99.90
17489;DHT22;8861;52.644;4.734;2023-02-27T13:01:21;8.70;99.90
17489;DHT22;8861;52.644;4.734;2023-02-27T13:03:54;9.10;99.90
17489;DHT22;8861;52.644;4.734;2023-02-27T13:06:28;9.20;99.90
17489;DHT22;8861;52.644;4.734;2023-02-27T13:09:14;9.30;99.90
17489;DHT22;8861;52.644;4.734;2023-02-27T13:11:52;9.40;99.90
17489;DHT22;8861;52.644;4.734;2023-02-27T13:14:33;9.40;99.90
17489;DHT22;8861;52.644;4.734;2023-02-27T13:17:03;9.50;99.90
17489;DHT22;8861;52.644;4.734;2023-02-27T13:19:40;9.60;99.90
17489;DHT22;8861;52.644;4.734;2023-02-27T13:22:12;9.60;99.90
17489;DHT22;8861;52.644;4.734;2023-02-27T13:24:46;9.50;99.90
17489;DHT22;8861;52.644;4.734;2023-02-27T13:27:20;9.40;99.90
17489;DHT22;8861;52.644;4.734;2023-02-27T13:29:58;9.50;99.90
17489;DHT22;8861;52.644;4.734;2023-02-27T13:32:34;9.50;99.90
17489;DHT22;8861;52.644;4.734;2023-02-27T13:35:16;9.50;99.90
17489;DHT22;8861;52.644;4.734;2023-02-27T13:37:54;9.50;99.90
17489;DHT22;8861;52.644;4.734;2023-02-27T13:40:35;9.50;99.90
17489;DHT22;8861;52.644;4.734;2023-02-27T13:45:56;9.40;99.90
17489;DHT22;8861;52.644;4.734;2023-02-27T13:48:46;9.30;99.90
17489;DHT22;8861;52.644;4.734;2023-02-27T13:51:43;9.40;99.90
17489;DHT22;8861;52.644;4.734;2023-02-27T13:54:27;9.50;99.90
17489;DHT22;8861;52.644;4.734;2023-02-27T13:57:20;9.60;99.90
17489;DHT22;8861;52.644;4.734;2023-02-27T14:00:03;9.70;99.90
17489;DHT22;8861;52.644;4.734;2023-02-27T14:02:51;9.60;99.90
17489;DHT22;8861;52.644;4.734;2023-02-27T14:05:27;9.30;99.90
17489;DHT22;8861;52.644;4.734;2023-02-27T14:08:06;9.00;99.90
17489;DHT22;8861;52.644;4.734;2023-02-27T14:10:36;8.70;99.90
17489;DHT22;8861;52.644;4.734;2023-02-27T14:13:29;8.80;99.90
17489;DHT22;8861;52.644;4.734;2023-02-27T14:16:03;9.10;99.90
17489;DHT22;8861;52.644;4.734;2023-02-27T14:18:55;9.30;99.90
17489;DHT22;8861;52.644;4.734;2023-02-27T14:21:56;9.40;99.90
17489;DHT22;8861;52.644;4.734;2023-02-27T14:24:30;9.40;99.90
17489;DHT22;8861;52.644;4.734;2023-02-27T14:26:59;9.30;99.90
17489;DHT22;8861;52.644;4.734;2023-02-27T14:29:28;9.00;99.90
17489;DHT22;8861;52.644;4.734;2023-02-27T14:32:02;8.80;99.90
17489;DHT22;8861;52.644;4.734;2023-02-27T14:34:31;8.60;99.90
17489;DHT22;8861;52.644;4.734;2023-02-27T14:37:01;8.70;99.90
17489;DHT22;8861;52.644;4.734;2023-02-27T14:39:33;9.00;99.90
17489;DHT22;8861;52.644;4.734;2023-02-27T14:44:50;9.60;99.90
17489;DHT22;8861;52.644;4.734;2023-02-27T14:47:23;9.60;99.90
17489;DHT22;8861;52.644;4.734;2023-02-27T14:49:52;9.40;99.90
17489;DHT22;8861;52.644;4.734;2023-02-27T14:52:23;9.20;99.90
17489;DHT22;8861;52.644;4.734;2023-02-27T14:54:51;8.90;99.90
17489;DHT22;8861;52.644;4.734;2023-02-27T14:57:20;8.80;99.90
17489;DHT22;8861;52.644;4.734;2023-02-27T14:59:49;8.80;99.90
17489;DHT22;8861;52.644;4.734;2023-02-27T15:02:21;8.90;99.90
17489;DHT22;8861;52.644;4.734;2023-02-27T15:04:51;9.00;99.90
17489;DHT22;8861;52.644;4.734;2023-02-27T15:07:21;9.00;99.90
17489;DHT22;8861;52.644;4.734;2023-02-27T15:09:54;9.00;99.90
17489;DHT22;8861;52.644;4.734;2023-02-27T15:12:22;9.00;99.90
17489;DHT22;8861;52.644;4.734;2023-02-27T15:14:51;9.00;99.90
17489;DHT22;8861;52.644;4.734;2023-02-27T15:17:22;8.90;99.90
17489;DHT22;8861;52.644;4.734;2023-02-27T15:19:51;8.80;99.90
17489;DHT22;8861;52.644;4.734;2023-02-27T15:22:20;8.60;99.90
17489;DHT22;8861;52.644;4.734;2023-02-27T15:24:48;8.40;99.90
17489;DHT22;8861;52.644;4.734;2023-02-27T15:27:17;8.20;99.90
17489;DHT22;8861;52.644;4.734;2023-02-27T15:29:49;8.10;99.90
17489;DHT22;8861;52.644;4.734;2023-02-27T15:32:24;8.10;99.90
17489;DHT22;8861;52.644;4.734;2023-02-27T15:34:51;8.10;99.90
17489;DHT22;8861;52.644;4.734;2023-02-27T15:37:21;8.30;99.90
17489;DHT22;8861;52.644;4.734;2023-02-27T15:39:50;8.30;99.90
17489;DHT22;8861;52.644;4.734;2023-02-27T15:42:19;8.30;99.90
17489;DHT22;8861;52.644;4.734;2023-02-27T15:44:47;8.30;99.90
17489;DHT22;8861;52.644;4.734;2023-02-27T15:47:20;8.20;99.90
17489;DHT22;8861;52.644;4.734;2023-02-27T15:49:53;8.20;99.90
17489;DHT22;8861;52.644;4.734;2023-02-27T15:52:23;8.30;99.90
17489;DHT22;8861;52.644;4.734;2023-02-27T15:54:53;8.40;99.90
17489;DHT22;8861;52.644;4.734;2023-02-27T15:57:21;8.50;99.90
17489;DHT22;8861;52.644;4.734;2023-02-27T15:59:48;8.50;99.90
17489;DHT22;8861;52.644;4.734;2023-02-27T16:02:19;8.50;99.90
17489;DHT22;8861;52.644;4.734;2023-02-27T16:04:49;8.50;99.90
17489;DHT22;8861;52.644;4.734;2023-02-27T16:07:19;8.30;99.90
17489;DHT22;8861;52.644;4.734;2023-02-27T16:09:50;8.10;99.90
17489;DHT22;8861;52.644;4.734;2023-02-27T16:12:28;7.90;99.90
17489;DHT22;8861;52.644;4.734;2023-02-27T16:15:23;7.70;99.90
17489;DHT22;8861;52.644;4.734;2023-02-27T16:18:02;7.50;99.90
17489;DHT22;8861;52.644;4.734;2023-02-27T16:20:42;7.40;99.90
17489;DHT22;8861;52.644;4.734;2023-02-27T16:23:20;7.40;99.90
17489;DHT22;8861;52.644;4.734;2023-02-27T16:26:03;7.40;99.90
17489;DHT22;8861;52.644;4.734;2023-02-27T16:28:32;7.30;99.90
17489;DHT22;8861;52.644;4.734;2023-02-27T16:30:59;7.30;99.90
17489;DHT22;8861;52.644;4.734;2023-02-27T16:33:30;7.30;99.90
17489;DHT22;8861;52.644;4.734;2023-02-27T16:36:12;7.20;99.90
17489;DHT22;8861;52.644;4.734;2023-02-27T16:38:40;7.10;99.90
17489;DHT22;8861;52.644;4.734;2023-02-27T16:41:09;7.00;99.90
17489;DHT22;8861;52.644;4.734;2023-02-27T16:43:36;7.00;99.90
17489;DHT22;8861;52.644;4.734;2023-02-27T16:46:03;6.90;99.90
17489;DHT22;8861;52.644;4.734;2023-02-27T16:48:30;6.90;99.90
17489;DHT22;8861;52.644;4.734;2023-02-27T16:50:57;6.80;99.90
17489;DHT22;8861;52.644;4.734;2023-02-27T16:53:26;6.70;99.90